Rain From: 21-07-2018 02:00 Until: 16:00 warning for: Rain Level: Yellow info button
suomi:
Sadevaroitus: Aamuyöstä alkaen voi sataa rankasti, yli 20 mm tunnissa.

svenska:
Nederbördsvarning: Från och med efternatten kan det förekomma synnerligen riklig nederbörd, mer än 20 mm i timmen.

english:
Heavy rain warning: From the early morning on heavy rain of more than 20 mm per hour can be expected. 

Forest fire From: 20-07-2018 23:00 Until: 21-07-2018 11:00 warning for: Forest fire Level: Yellow info button
suomi:
Metsäpalovaroitus on voimassa.

svenska:
Varning för skogsbrand gäller.

english:
A forest fire warning is in force. 


Thunder radar more information blitzortung!


Löydät sääaseman tiedot myös:

European Weather Network

Finland Weather Exchange

Weather Underground

AWEKAS



Weather Underground säähistoriasivu

Päivittäin yhteenveto Helmikuu 23, 2017 Yksiköt:  Englantilaiset    Metriset   Molemmat
« Edellinen Päivä
Seuraava Päivä »
Päivittäin Viikoittain Kuukausittain Vuosittain Mukautettu
  Korkea: Matala: Keskiarvo:
Lämpötila: TemperatureC °F -9.8 °F -5.4 °F
Kastepiste: DewpointC °F -11.1 °F -6.6 °F
Kosteus: Humidity % 88 % 90 %
Tuulen nopeus: WindSpeedKMH mph 0.0 mph 3.3 mph
Tuulenpuuska: WindSpeedGustKMH mph - -
Tuuli:- - West
Ilmanpaine: PressurehPa in 966.0 in -
Sade: 0.0 in    
Historical Graphs
 
 
Taulukkotiedot Helmikuu 23, 2017
Aika Lämpötila Kastepiste Ilmanpaine Tuuli Tuulen nopeus Tuulenpuuska Kosteus Sademäärä (tunneittain)
TemperatureC °F DewpointC °F PressurehPa in Calm     Humidity % HourlyPrecipMM in
00:00 -4.7 °F -6.2 °F 968.7 in ESE 3.2 mph 16.1 mph 89 % 0.0 in
00:15 -4.6 °F -6.1 °F 968.4 in SE 3.2 mph 12.9 mph 89 % 0.0 in
00:30 -4.6 °F -6.1 °F 968.4 in South 3.2 mph 11.3 mph 89 % 0.0 in
00:45 -4.5 °F -6.0 °F 968.1 in SE 4.8 mph 16.1 mph 89 % 0.0 in
01:00 -4.4 °F -6.1 °F 968.1 in SE 4.8 mph 17.7 mph 88 % 0.0 in
01:15 -4.4 °F -6.1 °F 967.7 in South 4.8 mph 14.5 mph 88 % 0.0 in
01:30 -4.3 °F -6.0 °F 967.7 in South 3.2 mph 14.5 mph 88 % 0.0 in
01:45 -4.3 °F -6.0 °F 967.7 in SE 3.2 mph 16.1 mph 88 % 0.0 in
02:00 -4.3 °F -5.9 °F 967.4 in SSE 1.6 mph 11.3 mph 89 % 0.0 in
02:15 -4.4 °F -5.9 °F 967.0 in SSE 1.6 mph 9.7 mph 89 % 0.0 in
02:30 -4.4 °F -5.8 °F 967.0 in ESE 1.6 mph 9.7 mph 90 % 0.0 in
02:45 -4.4 °F -5.8 °F 967.0 in SE 3.2 mph 16.1 mph 90 % 0.0 in
03:00 -4.4 °F -5.8 °F 966.7 in East 1.6 mph 9.7 mph 90 % 0.0 in
03:15 -4.4 °F -5.8 °F 966.7 in SE 1.6 mph 11.3 mph 90 % 0.0 in
03:30 -4.4 °F -5.8 °F 966.7 in SE 1.6 mph 8.0 mph 90 % 0.0 in
03:45 -4.4 °F -5.8 °F 966.4 in Calm   4.8 mph 90 % 0.0 in
04:00 -4.5 °F -5.7 °F 966.4 in Calm   4.8 mph 91 % 0.0 in
04:15 -4.6 °F -5.7 °F 966.4 in Calm     92 % 0.0 in
04:30 -4.6 °F -5.7 °F 966.0 in Calm     92 % 0.0 in
04:45 -4.6 °F -5.6 °F 966.0 in Calm   1.6 mph 93 % 0.0 in
05:00 -4.6 °F -5.5 °F 966.0 in Calm   1.6 mph 93 % 0.0 in
05:15 -4.6 °F -5.4 °F 966.0 in Calm   3.2 mph 94 % 0.0 in
05:30 -4.6 °F -5.4 °F 966.0 in Calm   1.6 mph 94 % 0.0 in
05:45 -4.6 °F -5.4 °F 966.0 in Calm     94 % 0.0 in
06:00 -4.5 °F -5.3 °F 966.0 in Calm     94 % 0.0 in
06:15 -4.5 °F -5.3 °F 966.0 in Calm     94 % 0.0 in
06:30 -4.5 °F -5.3 °F 966.0 in Calm     94 % 0.0 in
06:45 -4.6 °F -5.4 °F 966.0 in Calm     94 % 0.0 in
07:00 -4.6 °F -5.4 °F 966.0 in Calm     94 % 0.0 in
07:15 -4.6 °F -5.4 °F 966.0 in Calm     94 % 0.0 in
07:30 -4.6 °F -5.4 °F 966.0 in Calm   3.2 mph 94 % 0.0 in
07:45 -4.7 °F -5.5 °F 966.4 in Calm     94 % 0.0 in
08:00 -4.7 °F -5.5 °F 966.4 in Calm   3.2 mph 94 % 0.0 in
08:15 -4.7 °F -5.5 °F 966.4 in Calm     94 % 0.0 in
08:30 -4.8 °F -5.6 °F 966.7 in Calm     94 % 0.0 in
08:45 -4.8 °F -5.6 °F 966.7 in Calm   1.6 mph 94 % 0.0 in
09:00 -4.8 °F -5.6 °F 966.7 in Calm   3.2 mph 94 % 0.0 in
09:15 -4.7 °F -5.5 °F 967.0 in Calm   1.6 mph 94 % 0.0 in
09:30 -4.8 °F -5.6 °F 967.0 in Calm   4.8 mph 94 % 0.0 in
09:45 -4.8 °F -5.7 °F 967.4 in Calm   1.6 mph 94 % 0.0 in
10:00 -4.8 °F -5.7 °F 967.4 in Calm   4.8 mph 94 % 0.0 in
10:15 -4.7 °F -5.7 °F 967.7 in Calm   3.2 mph 93 % 0.0 in
10:30 -4.8 °F -5.8 °F 967.7 in NW 3.2 mph 9.7 mph 93 % 0.0 in
10:45 -4.9 °F -5.9 °F 968.1 in NNW 1.6 mph 4.8 mph 93 % 0.0 in
11:00 -4.9 °F -6.0 °F 968.1 in NW 3.2 mph 9.7 mph 92 % 0.0 in
11:15 -5.0 °F -6.1 °F 968.4 in NW 3.2 mph 9.7 mph 92 % 0.0 in
11:30 -5.3 °F -6.4 °F 968.7 in NW 4.8 mph 12.9 mph 92 % 0.0 in
11:45 -5.4 °F -6.5 °F 968.7 in NNW 3.2 mph 12.9 mph 92 % 0.0 in
12:00 -5.3 °F -6.4 °F 969.1 in NW 4.8 mph 11.3 mph 92 % 0.0 in
12:15 -5.3 °F -6.4 °F 969.4 in NW 1.6 mph 11.3 mph 92 % 0.0 in
12:30 -5.3 °F -6.6 °F 969.8 in NW 4.8 mph 11.3 mph 91 % 0.0 in
12:45 -5.3 °F -6.6 °F 969.8 in NW 6.4 mph 12.9 mph 91 % 0.0 in
13:00 -5.3 °F -6.6 °F 970.1 in NW 8.0 mph 16.1 mph 91 % 0.0 in
13:15 -5.3 °F -6.6 °F 970.4 in NW 6.4 mph 14.5 mph 91 % 0.0 in
13:30 -5.2 °F -6.3 °F 970.4 in NW 4.8 mph 17.7 mph 92 % 0.0 in
13:45 -5.0 °F -6.1 °F 970.8 in NNW 6.4 mph 12.9 mph 92 % 0.0 in
14:00 -4.8 °F -6.2 °F 971.1 in NW 8.0 mph 17.7 mph 90 % 0.0 in
14:15 -4.7 °F -6.1 °F 971.1 in NW 8.0 mph 16.1 mph 90 % 0.0 in
14:30 -4.6 °F -5.9 °F 971.4 in NW 6.4 mph 14.5 mph 91 % 0.0 in
14:45 -4.7 °F -6.0 °F 971.8 in NW 8.0 mph 20.9 mph 91 % 0.0 in
15:00 -4.7 °F -6.0 °F 971.8 in NW 8.0 mph 19.3 mph 91 % 0.0 in
15:15 -4.7 °F -6.0 °F 972.1 in NW 8.0 mph 14.5 mph 91 % 0.0 in
15:30 -4.7 °F -5.9 °F 972.5 in NNW 6.4 mph 12.9 mph 91 % 0.0 in
15:45 -4.6 °F -5.8 °F 972.5 in NW 4.8 mph 11.3 mph 91 % 0.0 in
16:00 -4.6 °F -5.8 °F 972.5 in NW 4.8 mph 17.7 mph 91 % 0.0 in
16:15 -4.6 °F -5.7 °F 972.8 in NW 4.8 mph 12.9 mph 92 % 0.0 in
16:30 -4.6 °F -5.9 °F 973.1 in NW 8.0 mph 17.7 mph 91 % 0.0 in
16:45 -4.8 °F -6.2 °F 973.5 in NW 6.4 mph 19.3 mph 90 % 0.0 in
17:00 -4.9 °F -6.3 °F 973.5 in NW 8.0 mph 16.1 mph 90 % 0.0 in
17:15 -5.0 °F -6.5 °F 973.8 in NW 6.4 mph 19.3 mph 89 % 0.0 in
17:30 -5.1 °F -6.5 °F 974.2 in NW 6.4 mph 22.5 mph 90 % 0.0 in
17:45 -5.4 °F -7.0 °F 974.5 in NW 8.0 mph 20.9 mph 89 % 0.0 in
18:00 -5.7 °F -7.0 °F 974.8 in NW 8.0 mph 19.3 mph 90 % 0.0 in
18:15 -6.0 °F -7.4 °F 975.2 in WNW 6.4 mph 17.7 mph 90 % 0.0 in
18:30 -6.3 °F -7.7 °F 975.5 in NW 6.4 mph 14.5 mph 90 % 0.0 in
18:45 -6.6 °F -8.0 °F 975.5 in NW 6.4 mph 16.1 mph 90 % 0.0 in
19:00 -6.7 °F -8.2 °F 975.5 in NW 8.0 mph 17.7 mph 89 % 0.0 in
19:15 -6.8 °F -8.3 °F 975.5 in NW 9.7 mph 17.7 mph 89 % 0.0 in
19:30 -7.1 °F -8.6 °F 975.5 in NW 6.4 mph 14.5 mph 89 % 0.0 in
19:45 -7.3 °F -8.8 °F 975.8 in NW 4.8 mph 9.7 mph 89 % 0.0 in
20:00 -7.2 °F -8.7 °F 975.8 in WNW 8.0 mph 19.3 mph 89 % 0.0 in
20:15 -7.3 °F -8.8 °F 975.8 in WNW 4.8 mph 12.9 mph 89 % 0.0 in
20:30 -7.3 °F -8.8 °F 975.8 in WNW 3.2 mph 12.9 mph 89 % 0.0 in
20:45 -7.4 °F -8.9 °F 975.8 in WNW 4.8 mph 14.5 mph 89 % 0.0 in
21:00 -7.4 °F -8.9 °F 975.8 in WNW 4.8 mph 12.9 mph 89 % 0.0 in
21:15 -7.7 °F -9.2 °F 976.2 in West 3.2 mph 11.3 mph 89 % 0.0 in
21:30 -7.8 °F -9.3 °F 976.2 in West 3.2 mph 12.9 mph 89 % 0.0 in
21:45 -8.1 °F -9.6 °F 976.5 in WNW 3.2 mph 9.7 mph 89 % 0.0 in
22:00 -8.4 °F -9.9 °F 976.5 in WNW 3.2 mph 9.7 mph 89 % 0.0 in
22:15 -8.6 °F -10.0 °F 976.5 in WNW 1.6 mph 9.7 mph 89 % 0.0 in
22:30 -8.7 °F -10.1 °F 976.9 in WNW 1.6 mph 9.7 mph 90 % 0.0 in
22:45 -8.9 °F -10.3 °F 976.9 in Calm   4.8 mph 90 % 0.0 in
23:00 -9.3 °F -10.6 °F 976.9 in Calm   3.2 mph 90 % 0.0 in
23:15 -9.6 °F -10.9 °F 976.9 in Calm   3.2 mph 90 % 0.0 in
23:30 -9.8 °F -11.1 °F 977.2 in WNW 1.6 mph 4.8 mph 90 % 0.0 in
23:45 -9.8 °F -11.0 °F 977.2 in Calm   4.8 mph 91 % 0.0 in
Esan sääasema
Terveisin Weather Underground - 2.75 mb

Alkuperäinen skripti  Jim McMurry - jmcmurry@mwt.net Sovitettu myös templatelle  Wim van der Kuil - Leuven-Template.eu

Laitteet joita käytämme:

Sääasema
Davis VP2

Sääasemaohjelma
Cumulus

Sääaseman tietokone
Asus EeePC

Palveluntarjoaja
Suncomet

Davis VP2

Cumulus

Asus EeePC

Suncomet